sensor_id;sensor_type;location;lat;lon;timestamp;P1;durP1;ratioP1;P2;durP2;ratioP2
38615;SDS011;24370;51.986;4.666;2022-09-09T00:09:19;5.68;;;3.90;;
38615;SDS011;24370;51.986;4.666;2022-09-09T00:17:26;7.30;;;4.30;;
38615;SDS011;24370;51.986;4.666;2022-09-09T00:22:38;11.50;;;5.18;;
38615;SDS011;24370;51.986;4.666;2022-09-09T00:27:45;8.23;;;4.70;;
38615;SDS011;24370;51.986;4.666;2022-09-09T00:30:17;8.80;;;5.43;;
38615;SDS011;24370;51.986;4.666;2022-09-09T00:33:01;7.13;;;4.63;;
38615;SDS011;24370;51.986;4.666;2022-09-09T00:35:37;10.88;;;5.20;;
38615;SDS011;24370;51.986;4.666;2022-09-09T00:38:12;9.90;;;5.65;;
38615;SDS011;24370;51.986;4.666;2022-09-09T00:40:50;13.10;;;6.40;;
38615;SDS011;24370;51.986;4.666;2022-09-09T00:43:26;8.20;;;4.80;;
38615;SDS011;24370;51.986;4.666;2022-09-09T00:48:35;8.80;;;5.07;;
38615;SDS011;24370;51.986;4.666;2022-09-09T00:51:15;10.45;;;5.55;;
38615;SDS011;24370;51.986;4.666;2022-09-09T00:54:19;11.55;;;5.28;;
38615;SDS011;24370;51.986;4.666;2022-09-09T00:56:53;9.27;;;5.63;;
38615;SDS011;24370;51.986;4.666;2022-09-09T00:59:46;13.25;;;5.43;;
38615;SDS011;24370;51.986;4.666;2022-09-09T01:02:16;11.27;;;6.22;;
38615;SDS011;24370;51.986;4.666;2022-09-09T01:04:55;9.10;;;5.63;;
38615;SDS011;24370;51.986;4.666;2022-09-09T01:07:43;9.57;;;5.22;;
38615;SDS011;24370;51.986;4.666;2022-09-09T01:13:08;9.82;;;5.35;;
38615;SDS011;24370;51.986;4.666;2022-09-09T01:15:40;9.35;;;5.82;;
38615;SDS011;24370;51.986;4.666;2022-09-09T01:18:10;6.82;;;5.13;;
38615;SDS011;24370;51.986;4.666;2022-09-09T01:28:37;12.40;;;4.90;;
38615;SDS011;24370;51.986;4.666;2022-09-09T01:31:05;6.63;;;4.70;;
38615;SDS011;24370;51.986;4.666;2022-09-09T01:33:32;7.80;;;4.63;;
38615;SDS011;24370;51.986;4.666;2022-09-09T01:36:15;6.10;;;4.75;;
38615;SDS011;24370;51.986;4.666;2022-09-09T01:38:46;8.57;;;4.55;;
38615;SDS011;24370;51.986;4.666;2022-09-09T01:41:12;7.38;;;3.85;;
38615;SDS011;24370;51.986;4.666;2022-09-09T01:43:37;6.60;;;3.85;;
38615;SDS011;24370;51.986;4.666;2022-09-09T01:46:03;9.15;;;4.80;;
38615;SDS011;24370;51.986;4.666;2022-09-09T01:48:29;6.53;;;4.13;;
38615;SDS011;24370;51.986;4.666;2022-09-09T01:50:55;7.70;;;4.03;;
38615;SDS011;24370;51.986;4.666;2022-09-09T01:53:20;6.80;;;4.55;;
38615;SDS011;24370;51.986;4.666;2022-09-09T02:04:08;10.48;;;4.63;;
38615;SDS011;24370;51.986;4.666;2022-09-09T02:06:49;6.93;;;4.25;;
38615;SDS011;24370;51.986;4.666;2022-09-09T02:09:21;12.38;;;4.63;;
38615;SDS011;24370;51.986;4.666;2022-09-09T02:11:49;6.50;;;3.65;;
38615;SDS011;24370;51.986;4.666;2022-09-09T02:14:25;12.10;;;4.30;;
38615;SDS011;24370;51.986;4.666;2022-09-09T02:17:01;8.35;;;4.07;;
38615;SDS011;24370;51.986;4.666;2022-09-09T02:19:34;8.70;;;4.25;;
38615;SDS011;24370;51.986;4.666;2022-09-09T02:22:02;5.07;;;3.33;;
38615;SDS011;24370;51.986;4.666;2022-09-09T02:24:32;8.55;;;3.65;;
38615;SDS011;24370;51.986;4.666;2022-09-09T02:27:00;8.05;;;4.10;;
38615;SDS011;24370;51.986;4.666;2022-09-09T02:29:31;7.05;;;4.32;;
38615;SDS011;24370;51.986;4.666;2022-09-09T02:32:01;5.57;;;4.25;;
38615;SDS011;24370;51.986;4.666;2022-09-09T02:34:30;9.68;;;4.72;;
38615;SDS011;24370;51.986;4.666;2022-09-09T02:37:01;12.35;;;4.38;;
38615;SDS011;24370;51.986;4.666;2022-09-09T02:39:28;9.45;;;4.53;;
38615;SDS011;24370;51.986;4.666;2022-09-09T02:41:54;8.70;;;4.80;;
38615;SDS011;24370;51.986;4.666;2022-09-09T02:44:19;9.73;;;5.45;;
38615;SDS011;24370;51.986;4.666;2022-09-09T02:50:07;10.07;;;4.97;;
38615;SDS011;24370;51.986;4.666;2022-09-09T02:55:39;11.15;;;4.45;;
38615;SDS011;24370;51.986;4.666;2022-09-09T02:58:10;10.75;;;4.85;;
38615;SDS011;24370;51.986;4.666;2022-09-09T03:00:42;11.50;;;5.43;;
38615;SDS011;24370;51.986;4.666;2022-09-09T03:03:09;13.88;;;5.25;;
38615;SDS011;24370;51.986;4.666;2022-09-09T03:05:34;7.13;;;4.57;;
38615;SDS011;24370;51.986;4.666;2022-09-09T03:08:00;11.18;;;5.28;;
38615;SDS011;24370;51.986;4.666;2022-09-09T03:10:27;10.25;;;4.68;;
38615;SDS011;24370;51.986;4.666;2022-09-09T03:12:52;8.13;;;5.35;;
38615;SDS011;24370;51.986;4.666;2022-09-09T03:15:17;10.93;;;6.18;;
38615;SDS011;24370;51.986;4.666;2022-09-09T03:17:43;8.77;;;5.05;;
38615;SDS011;24370;51.986;4.666;2022-09-09T03:20:08;11.73;;;5.75;;
38615;SDS011;24370;51.986;4.666;2022-09-09T03:22:34;11.45;;;5.85;;
38615;SDS011;24370;51.986;4.666;2022-09-09T03:25:00;11.13;;;5.68;;
38615;SDS011;24370;51.986;4.666;2022-09-09T03:27:27;8.98;;;5.80;;
38615;SDS011;24370;51.986;4.666;2022-09-09T03:29:53;9.52;;;5.70;;
38615;SDS011;24370;51.986;4.666;2022-09-09T03:32:18;12.93;;;5.03;;
38615;SDS011;24370;51.986;4.666;2022-09-09T03:34:44;9.77;;;5.85;;
38615;SDS011;24370;51.986;4.666;2022-09-09T03:37:12;9.15;;;5.40;;
38615;SDS011;24370;51.986;4.666;2022-09-09T03:39:37;12.05;;;5.38;;
38615;SDS011;24370;51.986;4.666;2022-09-09T03:42:03;12.52;;;6.90;;
38615;SDS011;24370;51.986;4.666;2022-09-09T03:44:29;10.07;;;5.15;;
38615;SDS011;24370;51.986;4.666;2022-09-09T03:46:55;9.88;;;5.65;;
38615;SDS011;24370;51.986;4.666;2022-09-09T03:49:21;9.68;;;5.05;;
38615;SDS011;24370;51.986;4.666;2022-09-09T03:51:47;10.88;;;5.20;;
38615;SDS011;24370;51.986;4.666;2022-09-09T03:54:12;8.13;;;4.50;;
38615;SDS011;24370;51.986;4.666;2022-09-09T03:56:38;10.48;;;4.70;;
38615;SDS011;24370;51.986;4.666;2022-09-09T03:59:04;8.50;;;4.30;;
38615;SDS011;24370;51.986;4.666;2022-09-09T04:01:29;9.48;;;4.97;;
38615;SDS011;24370;51.986;4.666;2022-09-09T04:03:55;12.80;;;4.25;;
38615;SDS011;24370;51.986;4.666;2022-09-09T04:06:23;8.93;;;3.95;;
38615;SDS011;24370;51.986;4.666;2022-09-09T04:08:49;8.27;;;5.57;;
38615;SDS011;24370;51.986;4.666;2022-09-09T04:11:15;10.18;;;4.50;;
38615;SDS011;24370;51.986;4.666;2022-09-09T04:13:41;8.77;;;3.63;;
38615;SDS011;24370;51.986;4.666;2022-09-09T04:16:08;7.57;;;3.88;;
38615;SDS011;24370;51.986;4.666;2022-09-09T04:18:35;7.53;;;3.28;;
38615;SDS011;24370;51.986;4.666;2022-09-09T04:21:00;4.85;;;3.20;;
38615;SDS011;24370;51.986;4.666;2022-09-09T04:23:27;6.60;;;2.88;;
38615;SDS011;24370;51.986;4.666;2022-09-09T04:25:56;4.53;;;2.90;;
38615;SDS011;24370;51.986;4.666;2022-09-09T04:28:23;6.72;;;2.80;;
38615;SDS011;24370;51.986;4.666;2022-09-09T04:30:49;9.32;;;3.67;;
38615;SDS011;24370;51.986;4.666;2022-09-09T04:33:15;5.32;;;2.97;;
38615;SDS011;24370;51.986;4.666;2022-09-09T04:35:46;4.43;;;2.40;;
38615;SDS011;24370;51.986;4.666;2022-09-09T04:38:13;4.38;;;2.88;;
38615;SDS011;24370;51.986;4.666;2022-09-09T04:40:39;9.73;;;3.28;;
38615;SDS011;24370;51.986;4.666;2022-09-09T04:43:07;8.98;;;3.03;;
38615;SDS011;24370;51.986;4.666;2022-09-09T04:45:34;6.53;;;3.13;;
38615;SDS011;24370;51.986;4.666;2022-09-09T04:47:59;5.53;;;2.70;;
38615;SDS011;24370;51.986;4.666;2022-09-09T04:50:25;7.43;;;3.40;;
38615;SDS011;24370;51.986;4.666;2022-09-09T04:52:50;9.02;;;3.22;;
38615;SDS011;24370;51.986;4.666;2022-09-09T04:55:16;8.38;;;3.05;;
38615;SDS011;24370;51.986;4.666;2022-09-09T04:57:41;9.13;;;2.80;;
38615;SDS011;24370;51.986;4.666;2022-09-09T05:00:07;5.03;;;3.17;;
38615;SDS011;24370;51.986;4.666;2022-09-09T05:02:33;8.23;;;2.90;;
38615;SDS011;24370;51.986;4.666;2022-09-09T05:05:02;6.97;;;3.10;;
38615;SDS011;24370;51.986;4.666;2022-09-09T05:07:28;9.38;;;3.03;;
38615;SDS011;24370;51.986;4.666;2022-09-09T05:09:54;5.00;;;2.92;;
38615;SDS011;24370;51.986;4.666;2022-09-09T05:12:19;6.15;;;2.90;;
38615;SDS011;24370;51.986;4.666;2022-09-09T05:14:44;5.13;;;2.78;;
38615;SDS011;24370;51.986;4.666;2022-09-09T05:17:10;7.60;;;3.20;;
38615;SDS011;24370;51.986;4.666;2022-09-09T05:19:35;5.55;;;2.78;;
38615;SDS011;24370;51.986;4.666;2022-09-09T05:22:01;7.55;;;2.90;;
38615;SDS011;24370;51.986;4.666;2022-09-09T05:24:27;8.88;;;3.25;;
38615;SDS011;24370;51.986;4.666;2022-09-09T05:26:52;9.45;;;3.05;;
38615;SDS011;24370;51.986;4.666;2022-09-09T05:29:17;9.60;;;2.80;;
38615;SDS011;24370;51.986;4.666;2022-09-09T05:31:44;8.35;;;3.50;;
38615;SDS011;24370;51.986;4.666;2022-09-09T05:34:12;11.18;;;2.97;;
38615;SDS011;24370;51.986;4.666;2022-09-09T05:36:37;8.02;;;2.90;;
38615;SDS011;24370;51.986;4.666;2022-09-09T05:39:03;6.70;;;2.78;;
38615;SDS011;24370;51.986;4.666;2022-09-09T05:41:29;12.68;;;3.95;;
38615;SDS011;24370;51.986;4.666;2022-09-09T05:43:55;7.85;;;2.38;;
38615;SDS011;24370;51.986;4.666;2022-09-09T05:46:21;10.43;;;3.05;;
38615;SDS011;24370;51.986;4.666;2022-09-09T05:48:49;9.52;;;3.00;;
38615;SDS011;24370;51.986;4.666;2022-09-09T05:51:23;10.10;;;2.85;;
38615;SDS011;24370;51.986;4.666;2022-09-09T05:53:51;8.30;;;2.60;;
38615;SDS011;24370;51.986;4.666;2022-09-09T05:56:21;9.52;;;3.10;;
38615;SDS011;24370;51.986;4.666;2022-09-09T05:58:49;9.90;;;2.90;;
38615;SDS011;24370;51.986;4.666;2022-09-09T06:03:41;10.25;;;2.40;;
38615;SDS011;24370;51.986;4.666;2022-09-09T06:06:13;7.78;;;2.35;;
38615;SDS011;24370;51.986;4.666;2022-09-09T06:08:41;13.15;;;2.25;;
38615;SDS011;24370;51.986;4.666;2022-09-09T06:11:10;9.20;;;2.10;;
38615;SDS011;24370;51.986;4.666;2022-09-09T06:13:40;10.45;;;2.35;;
38615;SDS011;24370;51.986;4.666;2022-09-09T06:16:10;7.45;;;2.00;;
38615;SDS011;24370;51.986;4.666;2022-09-09T06:18:37;6.43;;;2.10;;
38615;SDS011;24370;51.986;4.666;2022-09-09T06:21:03;8.95;;;2.08;;
38615;SDS011;24370;51.986;4.666;2022-09-09T06:23:31;6.78;;;2.55;;
38615;SDS011;24370;51.986;4.666;2022-09-09T06:28:31;9.75;;;2.00;;
38615;SDS011;24370;51.986;4.666;2022-09-09T06:30:57;8.20;;;2.13;;
38615;SDS011;24370;51.986;4.666;2022-09-09T06:33:24;6.30;;;2.28;;
38615;SDS011;24370;51.986;4.666;2022-09-09T06:35:53;7.70;;;2.42;;
38615;SDS011;24370;51.986;4.666;2022-09-09T06:38:19;9.60;;;2.80;;
38615;SDS011;24370;51.986;4.666;2022-09-09T06:40:56;6.18;;;2.20;;
38615;SDS011;24370;51.986;4.666;2022-09-09T06:43:23;8.20;;;2.30;;
38615;SDS011;24370;51.986;4.666;2022-09-09T06:45:53;11.73;;;3.10;;
38615;SDS011;24370;51.986;4.666;2022-09-09T06:50:47;6.97;;;2.38;;
38615;SDS011;24370;51.986;4.666;2022-09-09T06:53:17;12.10;;;3.17;;
38615;SDS011;24370;51.986;4.666;2022-09-09T06:55:44;12.07;;;3.35;;
38615;SDS011;24370;51.986;4.666;2022-09-09T06:58:10;10.93;;;4.45;;
38615;SDS011;24370;51.986;4.666;2022-09-09T07:00:35;13.60;;;4.30;;
38615;SDS011;24370;51.986;4.666;2022-09-09T07:03:03;12.35;;;3.75;;
38615;SDS011;24370;51.986;4.666;2022-09-09T07:05:30;7.97;;;3.50;;
38615;SDS011;24370;51.986;4.666;2022-09-09T07:07:55;11.68;;;3.95;;
38615;SDS011;24370;51.986;4.666;2022-09-09T07:10:21;14.65;;;3.67;;
38615;SDS011;24370;51.986;4.666;2022-09-09T07:12:49;10.10;;;3.20;;
38615;SDS011;24370;51.986;4.666;2022-09-09T07:15:16;11.95;;;4.03;;
38615;SDS011;24370;51.986;4.666;2022-09-09T07:17:43;8.98;;;3.55;;
38615;SDS011;24370;51.986;4.666;2022-09-09T07:20:09;8.05;;;3.20;;
38615;SDS011;24370;51.986;4.666;2022-09-09T07:22:34;12.35;;;3.63;;
38615;SDS011;24370;51.986;4.666;2022-09-09T07:25:00;12.75;;;4.15;;
38615;SDS011;24370;51.986;4.666;2022-09-09T07:27:27;12.52;;;4.00;;
38615;SDS011;24370;51.986;4.666;2022-09-09T07:29:52;8.57;;;3.53;;
38615;SDS011;24370;51.986;4.666;2022-09-09T07:32:19;9.60;;;4.40;;
38615;SDS011;24370;51.986;4.666;2022-09-09T07:34:45;7.15;;;3.22;;
38615;SDS011;24370;51.986;4.666;2022-09-09T07:37:12;9.43;;;3.65;;
38615;SDS011;24370;51.986;4.666;2022-09-09T07:39:38;9.20;;;3.80;;
38615;SDS011;24370;51.986;4.666;2022-09-09T07:42:04;11.98;;;4.43;;
38615;SDS011;24370;51.986;4.666;2022-09-09T07:44:30;10.18;;;4.05;;
38615;SDS011;24370;51.986;4.666;2022-09-09T07:46:59;8.63;;;3.80;;
38615;SDS011;24370;51.986;4.666;2022-09-09T07:49:25;10.90;;;4.35;;
38615;SDS011;24370;51.986;4.666;2022-09-09T07:51:50;12.70;;;4.13;;
38615;SDS011;24370;51.986;4.666;2022-09-09T07:54:17;8.73;;;3.72;;
38615;SDS011;24370;51.986;4.666;2022-09-09T07:56:48;12.15;;;4.32;;
38615;SDS011;24370;51.986;4.666;2022-09-09T07:59:14;12.45;;;3.67;;
38615;SDS011;24370;51.986;4.666;2022-09-09T08:01:41;8.43;;;3.83;;
38615;SDS011;24370;51.986;4.666;2022-09-09T08:04:10;8.93;;;3.78;;
38615;SDS011;24370;51.986;4.666;2022-09-09T08:06:41;10.80;;;3.72;;
38615;SDS011;24370;51.986;4.666;2022-09-09T08:09:11;12.20;;;4.57;;
38615;SDS011;24370;51.986;4.666;2022-09-09T08:11:37;10.32;;;4.47;;
38615;SDS011;24370;51.986;4.666;2022-09-09T08:14:04;10.10;;;3.80;;
38615;SDS011;24370;51.986;4.666;2022-09-09T08:16:33;10.00;;;4.68;;
38615;SDS011;24370;51.986;4.666;2022-09-09T08:19:01;11.65;;;3.67;;
38615;SDS011;24370;51.986;4.666;2022-09-09T08:21:28;14.45;;;3.70;;
38615;SDS011;24370;51.986;4.666;2022-09-09T08:23:55;8.50;;;3.10;;
38615;SDS011;24370;51.986;4.666;2022-09-09T08:26:25;9.07;;;3.38;;
38615;SDS011;24370;51.986;4.666;2022-09-09T08:28:53;10.35;;;3.50;;
38615;SDS011;24370;51.986;4.666;2022-09-09T08:31:25;8.13;;;2.97;;
38615;SDS011;24370;51.986;4.666;2022-09-09T08:33:56;6.25;;;2.90;;
38615;SDS011;24370;51.986;4.666;2022-09-09T08:36:26;11.77;;;4.07;;
38615;SDS011;24370;51.986;4.666;2022-09-09T08:38:54;9.43;;;3.72;;
38615;SDS011;24370;51.986;4.666;2022-09-09T08:44:56;13.55;;;3.53;;
38615;SDS011;24370;51.986;4.666;2022-09-09T08:58:20;8.82;;;2.58;;
38615;SDS011;24370;51.986;4.666;2022-09-09T09:06:21;8.75;;;3.15;;
38615;SDS011;24370;51.986;4.666;2022-09-09T09:11:47;10.55;;;3.53;;
38615;SDS011;24370;51.986;4.666;2022-09-09T09:14:23;7.78;;;2.95;;
38615;SDS011;24370;51.986;4.666;2022-09-09T09:16:51;6.45;;;3.13;;
38615;SDS011;24370;51.986;4.666;2022-09-09T09:19:18;12.50;;;3.65;;
38615;SDS011;24370;51.986;4.666;2022-09-09T09:21:44;9.13;;;2.80;;
38615;SDS011;24370;51.986;4.666;2022-09-09T09:26:57;8.82;;;3.03;;
38615;SDS011;24370;51.986;4.666;2022-09-09T09:29:29;10.43;;;2.95;;
38615;SDS011;24370;51.986;4.666;2022-09-09T09:31:55;13.10;;;3.75;;
38615;SDS011;24370;51.986;4.666;2022-09-09T09:34:27;13.50;;;3.15;;
38615;SDS011;24370;51.986;4.666;2022-09-09T09:36:54;16.95;;;4.53;;
38615;SDS011;24370;51.986;4.666;2022-09-09T09:39:29;9.52;;;2.88;;
38615;SDS011;24370;51.986;4.666;2022-09-09T09:41:57;13.88;;;3.17;;
38615;SDS011;24370;51.986;4.666;2022-09-09T09:44:27;10.65;;;3.38;;
38615;SDS011;24370;51.986;4.666;2022-09-09T09:47:07;12.02;;;3.33;;
38615;SDS011;24370;51.986;4.666;2022-09-09T09:49:38;14.32;;;3.83;;
38615;SDS011;24370;51.986;4.666;2022-09-09T09:52:05;11.90;;;3.42;;
38615;SDS011;24370;51.986;4.666;2022-09-09T09:54:33;8.40;;;3.28;;
38615;SDS011;24370;51.986;4.666;2022-09-09T09:57:10;9.13;;;2.90;;
38615;SDS011;24370;51.986;4.666;2022-09-09T09:59:36;13.38;;;3.45;;
38615;SDS011;24370;51.986;4.666;2022-09-09T10:02:14;8.05;;;3.00;;
38615;SDS011;24370;51.986;4.666;2022-09-09T10:05:05;10.45;;;2.28;;
38615;SDS011;24370;51.986;4.666;2022-09-09T10:07:37;10.20;;;2.53;;
38615;SDS011;24370;51.986;4.666;2022-09-09T10:10:04;9.20;;;2.20;;
38615;SDS011;24370;51.986;4.666;2022-09-09T10:13:17;10.32;;;2.40;;
38615;SDS011;24370;51.986;4.666;2022-09-09T10:18:32;9.05;;;2.25;;
38615;SDS011;24370;51.986;4.666;2022-09-09T10:27:00;9.25;;;1.83;;
38615;SDS011;24370;51.986;4.666;2022-09-09T10:40:27;8.30;;;1.90;;
38615;SDS011;24370;51.986;4.666;2022-09-09T10:43:31;6.13;;;1.90;;
38615;SDS011;24370;51.986;4.666;2022-09-09T10:46:20;6.65;;;2.53;;
38615;SDS011;24370;51.986;4.666;2022-09-09T10:49:13;7.68;;;2.10;;
38615;SDS011;24370;51.986;4.666;2022-09-09T10:51:46;5.57;;;2.58;;
38615;SDS011;24370;51.986;4.666;2022-09-09T10:56:51;8.75;;;2.40;;
38615;SDS011;24370;51.986;4.666;2022-09-09T10:59:22;4.18;;;2.03;;
38615;SDS011;24370;51.986;4.666;2022-09-09T11:01:57;8.32;;;2.13;;
38615;SDS011;24370;51.986;4.666;2022-09-09T11:04:33;4.93;;;2.03;;
38615;SDS011;24370;51.986;4.666;2022-09-09T11:07:09;6.63;;;2.30;;
38615;SDS011;24370;51.986;4.666;2022-09-09T11:09:39;7.13;;;2.08;;
38615;SDS011;24370;51.986;4.666;2022-09-09T11:12:12;6.97;;;2.50;;
38615;SDS011;24370;51.986;4.666;2022-09-09T11:14:49;9.55;;;3.05;;
38615;SDS011;24370;51.986;4.666;2022-09-09T11:17:26;7.60;;;2.60;;
38615;SDS011;24370;51.986;4.666;2022-09-09T11:19:55;5.50;;;1.60;;
38615;SDS011;24370;51.986;4.666;2022-09-09T11:27:54;5.30;;;2.25;;
38615;SDS011;24370;51.986;4.666;2022-09-09T11:30:37;4.53;;;2.28;;
38615;SDS011;24370;51.986;4.666;2022-09-09T11:36:13;5.10;;;2.40;;
38615;SDS011;24370;51.986;4.666;2022-09-09T11:38:56;8.50;;;2.58;;
38615;SDS011;24370;51.986;4.666;2022-09-09T11:41:39;7.97;;;4.22;;
38615;SDS011;24370;51.986;4.666;2022-09-09T11:44:12;6.40;;;2.55;;
38615;SDS011;24370;51.986;4.666;2022-09-09T11:46:42;7.80;;;2.60;;
38615;SDS011;24370;51.986;4.666;2022-09-09T11:49:39;5.47;;;2.85;;
38615;SDS011;24370;51.986;4.666;2022-09-09T11:52:23;6.25;;;3.35;;
38615;SDS011;24370;51.986;4.666;2022-09-09T11:55:07;8.93;;;3.40;;
38615;SDS011;24370;51.986;4.666;2022-09-09T11:57:48;8.77;;;3.53;;
38615;SDS011;24370;51.986;4.666;2022-09-09T12:00:46;8.15;;;3.75;;
38615;SDS011;24370;51.986;4.666;2022-09-09T12:03:33;11.43;;;3.60;;
38615;SDS011;24370;51.986;4.666;2022-09-09T12:06:07;10.27;;;4.10;;
38615;SDS011;24370;51.986;4.666;2022-09-09T12:08:53;8.07;;;4.18;;
38615;SDS011;24370;51.986;4.666;2022-09-09T12:11:27;7.95;;;4.00;;
38615;SDS011;24370;51.986;4.666;2022-09-09T12:13:56;12.38;;;4.38;;
38615;SDS011;24370;51.986;4.666;2022-09-09T12:19:15;14.25;;;4.07;;
38615;SDS011;24370;51.986;4.666;2022-09-09T12:27:16;8.15;;;4.05;;
38615;SDS011;24370;51.986;4.666;2022-09-09T12:29:55;13.90;;;5.95;;
38615;SDS011;24370;51.986;4.666;2022-09-09T12:32:28;13.95;;;5.18;;
38615;SDS011;24370;51.986;4.666;2022-09-09T12:34:55;10.55;;;4.72;;
38615;SDS011;24370;51.986;4.666;2022-09-09T12:40:01;9.82;;;4.78;;
38615;SDS011;24370;51.986;4.666;2022-09-09T12:42:30;7.45;;;5.40;;
38615;SDS011;24370;51.986;4.666;2022-09-09T12:45:02;12.35;;;4.68;;
38615;SDS011;24370;51.986;4.666;2022-09-09T12:47:31;7.07;;;4.15;;
38615;SDS011;24370;51.986;4.666;2022-09-09T12:50:00;10.40;;;3.70;;
38615;SDS011;24370;51.986;4.666;2022-09-09T12:54:59;9.63;;;4.10;;
38615;SDS011;24370;51.986;4.666;2022-09-09T12:57:29;8.65;;;3.55;;
38615;SDS011;24370;51.986;4.666;2022-09-09T13:00:20;6.07;;;3.25;;
38615;SDS011;24370;51.986;4.666;2022-09-09T13:05:19;5.68;;;3.50;;
38615;SDS011;24370;51.986;4.666;2022-09-09T13:07:49;12.03;;;3.70;;
38615;SDS011;24370;51.986;4.666;2022-09-09T13:10:19;6.65;;;3.30;;
38615;SDS011;24370;51.986;4.666;2022-09-09T13:12:49;10.13;;;3.70;;
38615;SDS011;24370;51.986;4.666;2022-09-09T13:15:20;9.65;;;3.45;;
38615;SDS011;24370;51.986;4.666;2022-09-09T13:17:59;6.03;;;2.83;;
38615;SDS011;24370;51.986;4.666;2022-09-09T13:20:30;5.63;;;3.15;;
38615;SDS011;24370;51.986;4.666;2022-09-09T13:22:56;7.68;;;3.63;;
38615;SDS011;24370;51.986;4.666;2022-09-09T13:25:24;13.98;;;5.07;;
38615;SDS011;24370;51.986;4.666;2022-09-09T13:27:55;6.75;;;3.30;;
38615;SDS011;24370;51.986;4.666;2022-09-09T13:30:36;5.47;;;3.08;;
38615;SDS011;24370;51.986;4.666;2022-09-09T13:35:47;9.88;;;3.33;;
38615;SDS011;24370;51.986;4.666;2022-09-09T13:38:16;6.20;;;3.47;;
38615;SDS011;24370;51.986;4.666;2022-09-09T13:41:00;9.57;;;3.35;;
38615;SDS011;24370;51.986;4.666;2022-09-09T13:44:02;8.85;;;3.53;;
38615;SDS011;24370;51.986;4.666;2022-09-09T13:46:35;6.07;;;2.47;;
38615;SDS011;24370;51.986;4.666;2022-09-09T13:51:39;5.85;;;1.73;;
38615;SDS011;24370;51.986;4.666;2022-09-09T13:54:12;7.95;;;2.40;;
38615;SDS011;24370;51.986;4.666;2022-09-09T13:56:39;7.82;;;2.50;;
38615;SDS011;24370;51.986;4.666;2022-09-09T13:59:09;6.68;;;2.13;;
38615;SDS011;24370;51.986;4.666;2022-09-09T14:01:36;6.50;;;2.00;;
38615;SDS011;24370;51.986;4.666;2022-09-09T14:04:02;5.10;;;1.30;;
38615;SDS011;24370;51.986;4.666;2022-09-09T14:06:29;3.40;;;1.25;;
38615;SDS011;24370;51.986;4.666;2022-09-09T14:08:54;3.83;;;1.48;;
38615;SDS011;24370;51.986;4.666;2022-09-09T14:11:20;3.75;;;1.52;;
38615;SDS011;24370;51.986;4.666;2022-09-09T14:13:48;5.10;;;1.45;;
38615;SDS011;24370;51.986;4.666;2022-09-09T14:16:17;3.28;;;1.50;;
38615;SDS011;24370;51.986;4.666;2022-09-09T14:18:43;3.95;;;1.92;;
38615;SDS011;24370;51.986;4.666;2022-09-09T14:21:09;3.35;;;1.70;;
38615;SDS011;24370;51.986;4.666;2022-09-09T14:23:36;4.68;;;2.28;;
38615;SDS011;24370;51.986;4.666;2022-09-09T14:26:03;14.05;;;2.92;;
38615;SDS011;24370;51.986;4.666;2022-09-09T14:28:29;4.82;;;2.25;;
38615;SDS011;24370;51.986;4.666;2022-09-09T14:30:54;5.30;;;2.70;;
38615;SDS011;24370;51.986;4.666;2022-09-09T14:33:20;5.80;;;2.83;;
38615;SDS011;24370;51.986;4.666;2022-09-09T14:35:46;6.47;;;2.88;;
38615;SDS011;24370;51.986;4.666;2022-09-09T14:38:11;8.85;;;2.97;;
38615;SDS011;24370;51.986;4.666;2022-09-09T14:40:37;5.30;;;3.13;;
38615;SDS011;24370;51.986;4.666;2022-09-09T14:43:03;8.27;;;3.38;;
38615;SDS011;24370;51.986;4.666;2022-09-09T14:45:30;6.88;;;3.63;;
38615;SDS011;24370;51.986;4.666;2022-09-09T14:47:56;6.63;;;3.22;;
38615;SDS011;24370;51.986;4.666;2022-09-09T14:50:22;8.43;;;3.17;;
38615;SDS011;24370;51.986;4.666;2022-09-09T14:52:48;6.05;;;2.47;;
38615;SDS011;24370;51.986;4.666;2022-09-09T14:55:15;4.53;;;1.90;;
38615;SDS011;24370;51.986;4.666;2022-09-09T14:57:41;7.63;;;2.00;;
38615;SDS011;24370;51.986;4.666;2022-09-09T15:00:08;5.05;;;1.77;;
38615;SDS011;24370;51.986;4.666;2022-09-09T15:02:34;6.30;;;2.33;;
38615;SDS011;24370;51.986;4.666;2022-09-09T15:05:00;5.68;;;2.22;;
38615;SDS011;24370;51.986;4.666;2022-09-09T15:07:26;6.53;;;1.88;;
38615;SDS011;24370;51.986;4.666;2022-09-09T15:09:53;5.22;;;1.80;;
38615;SDS011;24370;51.986;4.666;2022-09-09T15:12:19;7.45;;;1.80;;
38615;SDS011;24370;51.986;4.666;2022-09-09T15:14:45;3.88;;;1.60;;
38615;SDS011;24370;51.986;4.666;2022-09-09T15:17:11;8.05;;;1.70;;
38615;SDS011;24370;51.986;4.666;2022-09-09T15:19:37;5.00;;;1.90;;
38615;SDS011;24370;51.986;4.666;2022-09-09T15:22:03;6.13;;;1.50;;
38615;SDS011;24370;51.986;4.666;2022-09-09T15:24:32;3.55;;;1.60;;
38615;SDS011;24370;51.986;4.666;2022-09-09T15:26:58;3.97;;;1.00;;
38615;SDS011;24370;51.986;4.666;2022-09-09T15:29:24;4.82;;;1.23;;
38615;SDS011;24370;51.986;4.666;2022-09-09T15:31:50;7.18;;;1.30;;
38615;SDS011;24370;51.986;4.666;2022-09-09T15:34:15;5.03;;;1.52;;
38615;SDS011;24370;51.986;4.666;2022-09-09T15:36:41;3.50;;;1.50;;
38615;SDS011;24370;51.986;4.666;2022-09-09T15:39:12;4.03;;;1.30;;
38615;SDS011;24370;51.986;4.666;2022-09-09T15:41:44;5.03;;;1.38;;
38615;SDS011;24370;51.986;4.666;2022-09-09T15:44:11;5.15;;;1.70;;
38615;SDS011;24370;51.986;4.666;2022-09-09T15:49:07;11.18;;;2.30;;
38615;SDS011;24370;51.986;4.666;2022-09-09T15:51:47;8.05;;;2.40;;
38615;SDS011;24370;51.986;4.666;2022-09-09T15:54:17;8.57;;;2.88;;
38615;SDS011;24370;51.986;4.666;2022-09-09T15:56:46;6.70;;;2.90;;
38615;SDS011;24370;51.986;4.666;2022-09-09T15:59:15;6.15;;;2.85;;
38615;SDS011;24370;51.986;4.666;2022-09-09T16:01:41;7.75;;;2.55;;
38615;SDS011;24370;51.986;4.666;2022-09-09T16:04:07;10.30;;;3.30;;
38615;SDS011;24370;51.986;4.666;2022-09-09T16:06:33;8.93;;;3.13;;
38615;SDS011;24370;51.986;4.666;2022-09-09T16:08:59;7.95;;;3.15;;
38615;SDS011;24370;51.986;4.666;2022-09-09T16:11:28;8.50;;;3.58;;
38615;SDS011;24370;51.986;4.666;2022-09-09T16:13:56;10.90;;;3.55;;
38615;SDS011;24370;51.986;4.666;2022-09-09T16:16:22;10.05;;;3.88;;
38615;SDS011;24370;51.986;4.666;2022-09-09T16:18:50;6.00;;;3.25;;
38615;SDS011;24370;51.986;4.666;2022-09-09T16:21:19;10.25;;;4.40;;
38615;SDS011;24370;51.986;4.666;2022-09-09T16:23:56;9.90;;;3.72;;
38615;SDS011;24370;51.986;4.666;2022-09-09T16:26:24;8.00;;;3.65;;
38615;SDS011;24370;51.986;4.666;2022-09-09T16:28:50;7.45;;;3.92;;
38615;SDS011;24370;51.986;4.666;2022-09-09T16:31:17;7.78;;;3.78;;
38615;SDS011;24370;51.986;4.666;2022-09-09T16:33:45;6.28;;;3.80;;
38615;SDS011;24370;51.986;4.666;2022-09-09T16:36:13;11.50;;;4.65;;
38615;SDS011;24370;51.986;4.666;2022-09-09T16:38:40;10.95;;;4.22;;
38615;SDS011;24370;51.986;4.666;2022-09-09T16:41:06;11.65;;;4.57;;
38615;SDS011;24370;51.986;4.666;2022-09-09T16:43:33;13.07;;;4.68;;
38615;SDS011;24370;51.986;4.666;2022-09-09T16:46:00;10.57;;;4.28;;
38615;SDS011;24370;51.986;4.666;2022-09-09T16:48:26;14.15;;;4.18;;
38615;SDS011;24370;51.986;4.666;2022-09-09T16:51:00;8.82;;;4.63;;
38615;SDS011;24370;51.986;4.666;2022-09-09T16:53:26;13.90;;;4.60;;
38615;SDS011;24370;51.986;4.666;2022-09-09T16:55:52;9.65;;;4.47;;
38615;SDS011;24370;51.986;4.666;2022-09-09T16:58:17;8.35;;;3.45;;
38615;SDS011;24370;51.986;4.666;2022-09-09T17:00:43;7.82;;;2.83;;
38615;SDS011;24370;51.986;4.666;2022-09-09T17:03:12;4.47;;;3.00;;
38615;SDS011;24370;51.986;4.666;2022-09-09T17:05:41;3.42;;;2.80;;
38615;SDS011;24370;51.986;4.666;2022-09-09T17:08:06;4.32;;;2.97;;
38615;SDS011;24370;51.986;4.666;2022-09-09T17:10:32;7.03;;;3.40;;
38615;SDS011;24370;51.986;4.666;2022-09-09T17:12:57;7.70;;;3.72;;